Time;durP1;ratioP1;P1;durP2;ratioP2;P2;SDS_P1;SDS_P2;PMS_P1;PMS_P2;Temp;Humidity;BMP_temperature;BMP_pressure;BME280_temperature;BME280_humidity;BME280_pressure;Samples;Min_cycle;Max_cycle;Signal;HPM_P1;HPM_P2
2022/08/17 00:00:13;;;;;;;;;;;;;;;20.25;79.36;100454.50;4432647;32;20078;-69
2022/08/17 00:02:55;;;;;;;;;;;;;;;20.29;79.26;100455.06;4431918;32;19957;-66
2022/08/17 00:05:20;;;;;;;;;;;;;;;19.87;78.13;100457.87;4430685;32;20000;-65
2022/08/17 00:07:47;;;;;;;;;;;;;;;20.08;78.70;100447.91;4430241;32;20395;-65
2022/08/17 00:10:12;;;;;;;;;;;;;;;20.08;77.64;100449.97;4431039;32;20311;-67
2022/08/17 00:12:40;;;;;;;;;;;;;;;20.16;77.72;100457.59;4432950;32;21298;-68
2022/08/17 00:15:06;;;;;;;;;;;;;;;20.13;77.25;100454.97;4430399;32;19961;-68
2022/08/17 00:17:31;;;;;;;;;;;;;;;20.29;77.54;100449.34;4431420;32;20013;-66
2022/08/17 00:19:57;;;;;;;;;;;;;;;20.20;77.66;100448.75;4430663;32;19960;-69
2022/08/17 00:22:22;;;;;;;;;;;;;;;20.20;76.97;100449.56;4431293;32;20041;-66
2022/08/17 00:24:48;;;;;;;;;;;;;;;20.18;76.96;100452.12;4430572;32;19965;-66
2022/08/17 00:27:13;;;;;;;;;;;;;;;20.06;77.60;100450.47;4420797;32;19989;-66
2022/08/17 00:29:38;;;;;;;;;;;;;;;19.95;76.92;100452.50;4423261;32;20348;-66
2022/08/17 00:32:04;;;;;;;;;;;;;;;19.86;76.81;100447.78;4424604;32;20446;-70
2022/08/17 00:34:30;;;;;;;;;;;;;;;19.94;76.86;100451.69;4423906;32;20234;-66
2022/08/17 00:36:55;;;;;;;;;;;;;;;19.82;76.54;100455.00;4418201;32;20519;-68
2022/08/17 00:39:20;;;;;;;;;;;;;;;20.02;76.61;100458.50;4422360;32;19965;-66
2022/08/17 00:41:46;;;;;;;;;;;;;;;20.11;76.27;100457.50;4425390;32;19993;-66
2022/08/17 00:44:12;;;;;;;;;;;;;;;20.02;77.52;100454.84;4418849;32;20004;-69
2022/08/17 00:46:40;;;;;;;;;;;;;;;20.00;77.29;100454.59;4428593;32;19977;-66
2022/08/17 00:49:07;;;;;;;;;;;;;;;19.90;76.94;100450.37;4423762;32;20938;-69
2022/08/17 00:51:37;;;;;;;;;;;;;;;19.89;77.21;100457.37;4423229;32;20003;-67
2022/08/17 00:54:08;;;;;;;;;;;;;;;20.24;76.88;100455.78;4427746;32;20452;-66
2022/08/17 00:56:36;;;;;;;;;;;;;;;19.91;77.44;100452.72;4430983;32;20139;-66
2022/08/17 00:59:04;;;;;;;;;;;;;;;20.15;76.70;100456.00;4427990;32;20000;-67
2022/08/17 01:01:30;;;;;;;;;;;;;;;20.04;77.25;100458.78;4428709;32;19961;-64
2022/08/17 01:03:56;;;;;;;;;;;;;;;20.05;76.92;100459.56;4425586;32;20434;-67
2022/08/17 01:06:22;;;;;;;;;;;;;;;20.06;77.30;100458.28;4424726;32;20020;-64
2022/08/17 01:08:48;;;;;;;;;;;;;;;20.08;76.92;100462.19;4423280;32;20005;-65
2022/08/17 01:11:14;;;;;;;;;;;;;;;20.01;77.19;100461.88;4430469;32;19983;-65
2022/08/17 01:13:41;;;;;;;;;;;;;;;19.96;77.73;100451.97;4429891;32;20017;-67
2022/08/17 01:16:12;;;;;;;;;;;;;;;19.87;77.13;100463.59;4426870;32;19997;-64
2022/08/17 01:18:38;;;;;;;;;;;;;;;19.98;77.48;100457.97;4426060;32;20016;-66
2022/08/17 01:21:09;;;;;;;;;;;;;;;19.75;77.39;100459.09;4424802;32;20411;-66
2022/08/17 01:23:35;;;;;;;;;;;;;;;19.86;76.85;100466.97;4421266;32;20366;-66
2022/08/17 01:26:01;;;;;;;;;;;;;;;19.88;77.46;100456.59;4420463;32;19968;-65
2022/08/17 01:28:30;;;;;;;;;;;;;;;19.81;76.36;100462.78;4421388;32;20338;-66
2022/08/17 01:30:58;;;;;;;;;;;;;;;19.92;77.36;100462.06;4421974;32;19946;-66
2022/08/17 01:33:23;;;;;;;;;;;;;;;19.83;77.55;100463.81;4425381;32;19972;-66
2022/08/17 01:35:49;;;;;;;;;;;;;;;19.78;77.01;100463.81;4420712;32;19985;-67
2022/08/17 01:38:16;;;;;;;;;;;;;;;19.62;77.06;100464.47;4422774;32;20001;-65
2022/08/17 01:40:45;;;;;;;;;;;;;;;19.74;77.22;100464.06;4420146;32;20038;-66
2022/08/17 01:43:15;;;;;;;;;;;;;;;19.76;76.99;100463.53;4423709;32;19991;-66
2022/08/17 01:45:42;;;;;;;;;;;;;;;19.89;77.32;100469.59;4421080;32;19954;-67
2022/08/17 01:48:09;;;;;;;;;;;;;;;19.72;76.63;100474.41;4423494;32;19985;-68
2022/08/17 01:50:36;;;;;;;;;;;;;;;19.83;76.59;100471.63;4422215;32;19953;-69
2022/08/17 01:53:05;;;;;;;;;;;;;;;19.78;76.45;100476.00;4422652;32;19985;-68
2022/08/17 01:55:32;;;;;;;;;;;;;;;19.75;77.21;100473.38;4422564;32;20315;-66
2022/08/17 01:57:58;;;;;;;;;;;;;;;19.95;76.59;100481.84;4424742;32;20010;-68
2022/08/17 02:00:24;;;;;;;;;;;;;;;19.85;75.47;100480.44;4425233;32;19965;-67
2022/08/17 02:02:49;;;;;;;;;;;;;;;19.74;75.83;100494.66;4420490;32;20346;-68
2022/08/17 02:05:15;;;;;;;;;;;;;;;19.73;76.26;100493.88;4423275;32;19983;-68
2022/08/17 02:07:41;;;;;;;;;;;;;;;19.77;76.03;100488.72;4419424;32;20393;-68
2022/08/17 02:10:07;;;;;;;;;;;;;;;19.79;76.32;100491.84;4416545;32;19993;-68
2022/08/17 02:12:34;;;;;;;;;;;;;;;19.79;75.66;100500.41;4420465;32;19959;-68
2022/08/17 02:14:59;;;;;;;;;;;;;;;19.91;75.55;100491.94;4420905;32;19967;-68
2022/08/17 02:17:25;;;;;;;;;;;;;;;20.04;74.99;100507.34;4418424;32;20036;-68
2022/08/17 02:19:50;;;;;;;;;;;;;;;20.01;74.53;100501.87;4418154;32;19960;-68
2022/08/17 02:22:17;;;;;;;;;;;;;;;19.95;74.95;100513.25;4405860;32;19995;-68
2022/08/17 02:24:43;;;;;;;;;;;;;;;19.88;74.00;100516.56;4420847;32;20016;-67
2022/08/17 02:27:09;;;;;;;;;;;;;;;19.89;74.13;100511.66;4428435;32;19960;-66
2022/08/17 02:29:34;;;;;;;;;;;;;;;19.89;74.46;100506.72;4426244;32;19958;-66
2022/08/17 02:32:00;;;;;;;;;;;;;;;19.94;75.29;100513.78;4427559;32;20026;-67
2022/08/17 02:34:26;;;;;;;;;;;;;;;20.01;74.40;100522.66;4424656;32;19937;-67
2022/08/17 02:36:52;;;;;;;;;;;;;;;19.95;74.71;100516.13;4424699;32;19989;-66
2022/08/17 02:39:17;;;;;;;;;;;;;;;20.01;73.97;100519.00;4423028;32;20303;-67
2022/08/17 02:41:43;;;;;;;;;;;;;;;20.08;74.49;100518.53;4424589;32;20012;-66
2022/08/17 02:44:09;;;;;;;;;;;;;;;19.91;74.07;100526.97;4423723;32;20354;-67
2022/08/17 02:46:34;;;;;;;;;;;;;;;19.85;75.30;100526.16;4427806;32;19969;-66
2022/08/17 02:49:00;;;;;;;;;;;;;;;19.92;74.99;100527.75;4423826;32;20004;-67
2022/08/17 02:51:25;;;;;;;;;;;;;;;20.08;74.19;100529.94;4423166;32;19958;-67
2022/08/17 02:53:51;;;;;;;;;;;;;;;20.01;74.18;100522.66;4424204;32;20000;-67
2022/08/17 02:56:17;;;;;;;;;;;;;;;19.92;74.04;100525.69;4424298;32;20362;-67
2022/08/17 02:58:43;;;;;;;;;;;;;;;20.10;74.49;100522.47;4420574;32;20026;-67
2022/08/17 03:01:09;;;;;;;;;;;;;;;20.09;73.86;100515.16;4425457;32;20047;-67
2022/08/17 03:03:36;;;;;;;;;;;;;;;20.09;73.93;100514.41;4423276;32;20056;-67
2022/08/17 03:06:02;;;;;;;;;;;;;;;20.13;73.10;100520.69;4422719;32;20020;-67
2022/08/17 03:08:27;;;;;;;;;;;;;;;20.13;73.79;100523.53;4424330;32;20002;-67
2022/08/17 03:10:53;;;;;;;;;;;;;;;19.91;73.68;100524.13;4426265;32;19957;-67
2022/08/17 03:13:18;;;;;;;;;;;;;;;19.93;73.21;100523.59;4429214;32;19960;-67
2022/08/17 03:15:46;;;;;;;;;;;;;;;19.91;73.62;100526.22;4423700;32;19998;-67
2022/08/17 03:18:13;;;;;;;;;;;;;;;19.92;74.25;100524.91;4420967;32;19961;-67
2022/08/17 03:20:39;;;;;;;;;;;;;;;19.68;74.52;100531.75;4422818;32;20032;-67
2022/08/17 03:23:05;;;;;;;;;;;;;;;19.64;74.81;100524.69;4422257;32;20239;-67
2022/08/17 03:25:32;;;;;;;;;;;;;;;19.74;74.48;100531.78;4424241;32;20004;-67
2022/08/17 03:27:58;;;;;;;;;;;;;;;19.76;74.69;100526.38;4424014;32;20403;-67
2022/08/17 03:30:24;;;;;;;;;;;;;;;19.68;73.89;100537.47;4424130;32;19991;-67
2022/08/17 03:32:51;;;;;;;;;;;;;;;19.56;74.26;100524.38;4426508;32;19990;-67
2022/08/17 03:35:18;;;;;;;;;;;;;;;19.79;74.50;100528.22;4427264;32;19967;-67
2022/08/17 03:37:43;;;;;;;;;;;;;;;19.64;74.65;100530.41;4421727;32;20369;-67
2022/08/17 03:40:09;;;;;;;;;;;;;;;19.73;74.47;100522.44;4426352;32;19969;-67
2022/08/17 03:42:36;;;;;;;;;;;;;;;19.69;74.87;100532.50;4425875;32;20042;-67
2022/08/17 03:45:03;;;;;;;;;;;;;;;19.73;75.19;100527.38;4427018;32;19980;-67
2022/08/17 03:58:35;;;;;;;;;;;;;;;19.91;73.52;100543.34;4424364;32;20008;-67
2022/08/17 04:01:01;;;;;;;;;;;;;;;20.00;73.45;100546.00;4422781;32;19992;-67
2022/08/17 04:03:27;;;;;;;;;;;;;;;20.09;73.44;100549.44;4424385;32;21098;-67
2022/08/17 04:05:53;;;;;;;;;;;;;;;19.83;73.19;100551.59;4429970;32;20033;-67
2022/08/17 04:08:19;;;;;;;;;;;;;;;19.79;73.75;100559.63;4425725;32;19957;-67
2022/08/17 04:10:44;;;;;;;;;;;;;;;19.93;73.54;100558.69;4425614;32;19975;-68
2022/08/17 04:13:10;;;;;;;;;;;;;;;19.82;73.52;100555.72;4428429;32;19965;-67
2022/08/17 04:15:35;;;;;;;;;;;;;;;19.83;73.41;100563.78;4429097;32;20001;-67
2022/08/17 04:18:02;;;;;;;;;;;;;;;19.69;73.04;100563.91;4426181;32;20004;-67
2022/08/17 04:20:28;;;;;;;;;;;;;;;19.77;73.37;100560.13;4424070;32;19957;-67
2022/08/17 04:23:03;;;;;;;;;;;;;;;19.76;72.65;100569.19;4427094;32;20007;-67
2022/08/17 04:25:31;;;;;;;;;;;;;;;19.66;73.47;100557.16;4423191;32;20128;-67
2022/08/17 04:27:57;;;;;;;;;;;;;;;19.71;73.39;100564.22;4424391;32;20322;-67
2022/08/17 04:30:23;;;;;;;;;;;;;;;19.74;74.05;100569.69;4425515;32;20000;-67
2022/08/17 04:32:51;;;;;;;;;;;;;;;19.83;73.47;100566.63;4427726;32;19960;-67
2022/08/17 04:35:19;;;;;;;;;;;;;;;19.75;73.72;100570.47;4424413;32;20264;-67
2022/08/17 04:37:44;;;;;;;;;;;;;;;19.80;73.39;100581.94;4427050;32;19973;-67
2022/08/17 04:43:14;;;;;;;;;;;;;;;19.75;72.75;100588.38;4427937;32;19989;-66
2022/08/17 04:45:41;;;;;;;;;;;;;;;19.60;74.60;100592.63;4434424;32;20025;-67
2022/08/17 04:48:06;;;;;;;;;;;;;;;19.49;75.32;100599.03;4433113;32;20475;-66
2022/08/17 04:50:33;;;;;;;;;;;;;;;19.58;74.74;100589.53;4431396;32;19984;-66
2022/08/17 04:52:59;;;;;;;;;;;;;;;19.64;74.71;100601.78;4427522;32;19957;-66
2022/08/17 04:55:25;;;;;;;;;;;;;;;19.47;76.32;100600.81;4428682;32;19983;-67
2022/08/17 04:57:51;;;;;;;;;;;;;;;19.57;74.91;100611.56;4428569;32;19997;-67
2022/08/17 05:00:16;;;;;;;;;;;;;;;19.45;75.30;100615.59;4428496;32;20099;-67
2022/08/17 05:02:44;;;;;;;;;;;;;;;19.58;75.13;100612.38;4429302;32;20000;-65
2022/08/17 05:05:10;;;;;;;;;;;;;;;19.38;75.35;100618.91;4431319;32;19958;-67
2022/08/17 05:07:35;;;;;;;;;;;;;;;19.48;74.77;100614.59;4429477;32;19976;-67
2022/08/17 05:10:01;;;;;;;;;;;;;;;19.42;74.93;100618.69;4430810;32;19967;-67
2022/08/17 05:12:27;;;;;;;;;;;;;;;19.23;76.24;100620.22;4430253;32;19953;-67
2022/08/17 05:14:52;;;;;;;;;;;;;;;19.16;75.30;100612.91;4430540;32;20054;-67
2022/08/17 05:17:18;;;;;;;;;;;;;;;19.36;74.90;100624.31;4427204;32;20345;-67
2022/08/17 05:19:43;;;;;;;;;;;;;;;19.34;75.10;100623.25;4421517;32;19990;-66
2022/08/17 05:22:09;;;;;;;;;;;;;;;19.16;74.27;100627.16;4421401;32;19945;-67
2022/08/17 05:24:35;;;;;;;;;;;;;;;19.26;74.08;100630.66;4420070;32;19997;-68
2022/08/17 05:27:00;;;;;;;;;;;;;;;19.00;75.40;100629.81;4423566;32;20069;-68
2022/08/17 05:29:26;;;;;;;;;;;;;;;19.01;74.81;100631.38;4420718;32;20062;-67
2022/08/17 05:31:52;;;;;;;;;;;;;;;19.16;74.17;100630.03;4419830;32;20056;-67
2022/08/17 05:34:18;;;;;;;;;;;;;;;19.06;73.88;100631.47;4419311;32;20003;-68
2022/08/17 05:36:44;;;;;;;;;;;;;;;18.79;74.45;100637.59;4419438;32;20270;-67
2022/08/17 05:39:09;;;;;;;;;;;;;;;18.87;74.47;100637.94;4421685;32;19966;-67
2022/08/17 05:41:35;;;;;;;;;;;;;;;18.74;74.13;100637.47;4421085;32;20437;-67
2022/08/17 05:44:01;;;;;;;;;;;;;;;18.62;75.15;100639.41;4427205;32;20037;-67
2022/08/17 05:46:30;;;;;;;;;;;;;;;18.56;75.78;100634.91;4425929;32;20029;-67
2022/08/17 05:48:57;;;;;;;;;;;;;;;18.27;76.31;100632.88;4424458;32;19957;-69
2022/08/17 05:51:30;;;;;;;;;;;;;;;18.36;75.65;100638.47;4423992;32;19985;-68
2022/08/17 05:59:18;;;;;;;;;;;;;;;19.03;74.12;100648.78;3979995;32;15723613;-69
2022/08/17 06:01:54;;;;;;;;;;;;;;;19.03;74.12;100648.78;4447875;32;19961;-69
2022/08/17 06:15:11;;;;;;;;;;;;;;;19.08;72.68;100662.31;3935885;32;15723384;-69
2022/08/17 06:17:37;;;;;;;;;;;;;;;19.08;72.68;100662.31;4413161;32;19972;-68
2022/08/17 06:20:07;;;;;;;;;;;;;;;18.76;73.08;100657.75;4416576;32;19954;-68
2022/08/17 06:22:37;;;;;;;;;;;;;;;18.85;72.58;100661.25;4417123;32;20012;-69
2022/08/17 06:25:13;;;;;;;;;;;;;;;18.93;72.39;100656.69;4416420;32;19958;-69
2022/08/17 06:27:42;;;;;;;;;;;;;;;19.16;71.77;100657.75;4411473;32;19954;-69
2022/08/17 06:30:28;;;;;;;;;;;;;;;19.10;71.34;100668.31;4414186;32;20066;-68
2022/08/17 06:32:58;;;;;;;;;;;;;;;19.11;71.41;100672.72;4417701;32;19997;-69
2022/08/17 06:35:43;;;;;;;;;;;;;;;19.20;69.77;100661.19;4414824;32;20432;-68
2022/08/17 06:38:14;;;;;;;;;;;;;;;19.22;70.26;100672.88;4416918;32;19946;-68
2022/08/17 06:43:39;;;;;;;;;;;;;;;19.51;69.57;100667.81;3953258;32;15728563;-68
2022/08/17 06:46:09;;;;;;;;;;;;;;;19.51;69.57;100667.81;4431029;32;19961;-68
2022/08/17 06:53:58;;;;;;;;;;;;;;;19.64;68.56;100704.56;3953659;31;15718648;-68
2022/08/17 06:56:44;;;;;;;;;;;;;;;19.64;68.56;100704.56;4432296;32;20026;-67
2022/08/17 06:59:14;;;;;;;;;;;;;;;19.12;69.13;100697.91;4436232;32;19957;-67
2022/08/17 07:01:40;;;;;;;;;;;;;;;19.02;68.65;100695.72;4435331;32;19950;-67
2022/08/17 07:04:12;;;;;;;;;;;;;;;19.11;69.06;100699.19;4435152;32;19993;-67
2022/08/17 07:06:44;;;;;;;;;;;;;;;19.14;69.14;100705.97;4436818;32;20040;-67
2022/08/17 07:09:17;;;;;;;;;;;;;;;19.01;68.61;100706.31;4436343;32;20058;-68
2022/08/17 07:11:49;;;;;;;;;;;;;;;19.19;68.71;100710.97;4435229;32;19988;-67
2022/08/17 07:14:35;;;;;;;;;;;;;;;19.47;68.89;100712.13;4438925;32;19963;-68
2022/08/17 07:17:02;;;;;;;;;;;;;;;19.20;67.24;100716.19;4434251;32;20071;-68
2022/08/17 07:19:31;;;;;;;;;;;;;;;19.37;68.15;100722.13;4432595;32;20642;-67
2022/08/17 07:29:48;;;;;;;;;;;;;;;19.92;66.57;100748.50;3951914;32;15725540;-68
2022/08/17 07:32:17;;;;;;;;;;;;;;;19.92;66.57;100748.50;4431071;32;19949;-68
2022/08/17 07:35:03;;;;;;;;;;;;;;;19.40;66.90;100746.81;4431479;32;20343;-67
2022/08/17 07:37:32;;;;;;;;;;;;;;;19.46;66.17;100745.59;4428686;32;20027;-67
2022/08/17 07:39:58;;;;;;;;;;;;;;;19.48;65.38;100757.31;4432320;32;19969;-67
2022/08/17 07:42:23;;;;;;;;;;;;;;;19.27;65.45;100760.66;4430188;32;21085;-68
2022/08/17 07:44:52;;;;;;;;;;;;;;;19.21;67.11;100759.75;4429673;32;20327;-67
2022/08/17 07:50:25;;;;;;;;;;;;;;;19.06;66.11;100759.03;4431362;32;19949;-67
2022/08/17 07:52:50;;;;;;;;;;;;;;;19.02;65.23;100761.31;4431390;32;19997;-67
2022/08/17 07:55:33;;;;;;;;;;;;;;;19.36;65.12;100761.28;4428652;32;19978;-68
2022/08/17 07:57:59;;;;;;;;;;;;;;;19.21;66.02;100768.31;4429577;32;19992;-68
2022/08/17 08:00:25;;;;;;;;;;;;;;;19.41;65.30;100774.06;4432093;32;19965;-68
2022/08/17 08:03:12;;;;;;;;;;;;;;;19.42;64.87;100772.81;4432722;32;19962;-67
2022/08/17 08:05:47;;;;;;;;;;;;;;;19.80;64.79;100770.41;4430938;32;20044;-67
2022/08/17 08:11:06;;;;;;;;;;;;;;;20.40;62.35;100777.31;3954012;32;15731582;-68
2022/08/17 08:13:32;;;;;;;;;;;;;;;20.40;62.35;100777.31;4432937;32;20001;-68
2022/08/17 08:18:50;;;;;;;;;;;;;;;20.24;60.98;100780.78;3958486;32;15725522;-68
2022/08/17 08:26:48;;;;;;;;;;;;;;;20.38;60.91;100786.41;3954676;32;15724353;-68
2022/08/17 08:29:33;;;;;;;;;;;;;;;20.38;60.91;100786.41;4427923;32;19953;-68
2022/08/17 08:32:19;;;;;;;;;;;;;;;19.97;61.62;100795.53;4427586;32;19954;-68
2022/08/17 08:35:05;;;;;;;;;;;;;;;19.94;60.40;100785.13;4428735;32;19953;-68
2022/08/17 08:37:50;;;;;;;;;;;;;;;19.97;60.72;100784.88;4430168;32;20340;-68
2022/08/17 08:45:37;;;;;;;;;;;;;;;21.45;56.90;100788.25;3954041;32;15723566;-68
2022/08/17 08:48:22;;;;;;;;;;;;;;;21.45;56.90;100788.25;4429898;32;20001;-68
2022/08/17 08:50:53;;;;;;;;;;;;;;;20.97;56.57;100787.44;4432608;32;19946;-69
2022/08/17 08:53:29;;;;;;;;;;;;;;;21.43;56.04;100787.22;4431745;32;19976;-68
2022/08/17 08:58:51;;;;;;;;;;;;;;;22.30;53.48;100797.44;3951713;32;15723510;-67
2022/08/17 09:01:24;;;;;;;;;;;;;;;22.30;53.48;100797.44;4428425;32;20432;-67
2022/08/17 09:06:46;;;;;;;;;;;;;;;22.69;52.40;100803.25;3951241;32;15722576;-69
2022/08/17 09:09:21;;;;;;;;;;;;;;;22.69;52.40;100803.25;4426141;32;19962;-69
2022/08/17 09:14:34;;;;;;;;;;;;;;;23.28;50.57;100806.63;3953208;32;15723564;-69
2022/08/17 09:17:04;;;;;;;;;;;;;;;23.28;50.57;100806.63;4429795;32;19949;-69
2022/08/17 09:25:09;;;;;;;;;;;;;;;23.42;49.26;100814.19;3966664;31;15718036;-69
2022/08/17 09:27:57;;;;;;;;;;;;;;;23.42;49.26;100814.19;4450050;32;20465;-68
2022/08/17 09:30:24;;;;;;;;;;;;;;;22.85;50.21;100813.94;4449537;32;20755;-69
2022/08/17 09:32:54;;;;;;;;;;;;;;;22.69;50.72;100820.47;4450787;32;20000;-68
2022/08/17 09:35:23;;;;;;;;;;;;;;;22.62;50.38;100816.06;4450790;32;20342;-69
2022/08/17 09:40:27;;;;;;;;;;;;;;;23.64;49.02;100801.84;3951307;32;15723592;-68
2022/08/17 09:45:32;;;;;;;;;;;;;;;24.08;47.00;100802.44;3953100;32;15723618;-68
2022/08/17 09:48:05;;;;;;;;;;;;;;;24.08;47.00;100802.44;4427075;32;20290;-68
2022/08/17 09:50:35;;;;;;;;;;;;;;;23.99;46.71;100805.63;4427963;32;19974;-68
2022/08/17 09:53:00;;;;;;;;;;;;;;;24.71;46.09;100806.00;4428033;32;20303;-68
2022/08/17 09:55:36;;;;;;;;;;;;;;;24.84;45.10;100808.22;4426384;32;19980;-69
2022/08/17 09:58:22;;;;;;;;;;;;;;;25.21;44.36;100805.53;4429006;32;20053;-69
2022/08/17 10:00:56;;;;;;;;;;;;;;;25.01;44.79;100794.47;4427175;32;20701;-69
2022/08/17 10:06:12;;;;;;;;;;;;;;;26.14;42.23;100802.91;3950525;32;15734573;-68
2022/08/17 10:08:57;;;;;;;;;;;;;;;26.14;42.23;100802.91;4427198;32;20330;-68
2022/08/17 10:14:09;;;;;;;;;;;;;;;25.36;43.07;100811.69;3953356;32;15726611;-68
2022/08/17 10:16:37;;;;;;;;;;;;;;;25.36;43.07;100811.69;4434762;32;19965;-68
2022/08/17 10:27:19;;;;;;;;;;;;;;;24.13;45.52;100801.66;4430195;32;20043;-69
2022/08/17 10:29:49;;;;;;;;;;;;;;;24.28;45.30;100804.97;4432875;32;20301;-68
2022/08/17 10:35:05;;;;;;;;;;;;;;;24.50;45.96;100807.69;3953546;32;15727569;-69
2022/08/17 10:45:35;;;;;;;;;;;;;;;23.79;47.83;100800.22;3954456;32;15723623;-68
2022/08/17 10:48:20;;;;;;;;;;;;;;;23.79;47.83;100800.22;4430561;32;19949;-68
2022/08/17 10:58:52;;;;;;;;;;;;;;;23.76;47.39;100794.72;3951976;32;15721245;-69
2022/08/17 11:01:21;;;;;;;;;;;;;;;23.76;47.39;100794.72;4430601;32;20321;-69
2022/08/17 11:03:51;;;;;;;;;;;;;;;23.57;47.39;100794.56;4433294;32;20765;-69
2022/08/17 11:06:20;;;;;;;;;;;;;;;23.68;47.22;100799.50;4430898;32;20398;-69
2022/08/17 11:16:46;;;;;;;;;;;;;;;24.62;45.08;100811.25;3945480;32;15724605;-69
2022/08/17 11:19:26;;;;;;;;;;;;;;;24.62;45.08;100811.25;4411929;32;20008;-69
2022/08/17 11:27:08;;;;;;;;;;;;;;;25.07;44.07;100819.00;3951819;32;15721632;-68
2022/08/17 11:29:45;;;;;;;;;;;;;;;25.07;44.07;100819.00;4434396;32;20032;-68
2022/08/17 11:32:26;;;;;;;;;;;;;;;24.78;44.76;100828.44;4433951;32;19957;-68
2022/08/17 11:35:04;;;;;;;;;;;;;;;24.84;43.93;100826.28;4435521;32;20377;-68
2022/08/17 11:40:32;;;;;;;;;;;;;;;25.27;43.23;100829.31;3950774;32;15771474;-68
2022/08/17 11:43:19;;;;;;;;;;;;;;;25.27;43.23;100829.31;4427636;32;20041;-68
2022/08/17 11:51:46;;;;;;;;;;;;;;;25.03;43.61;100829.25;4437114;32;20374;-69
2022/08/17 11:54:32;;;;;;;;;;;;;;;24.35;45.12;100829.47;4435727;32;21137;-69
2022/08/17 11:56:59;;;;;;;;;;;;;;;24.10;45.19;100834.34;4434815;32;19957;-69
2022/08/17 12:02:33;;;;;;;;;;;;;;;24.35;45.52;100841.78;3952144;32;15724623;-69
2022/08/17 12:05:01;;;;;;;;;;;;;;;24.35;45.52;100841.78;4427922;32;20038;-69
2022/08/17 12:07:28;;;;;;;;;;;;;;;23.93;45.80;100835.69;4428957;32;20270;-69
2022/08/17 12:09:56;;;;;;;;;;;;;;;23.88;45.78;100830.75;4428512;32;19961;-69
2022/08/17 12:12:31;;;;;;;;;;;;;;;23.86;45.69;100831.28;4427200;32;19989;-69
2022/08/17 12:14:58;;;;;;;;;;;;;;;23.84;45.54;100825.25;4429884;32;19961;-69
2022/08/17 12:17:26;;;;;;;;;;;;;;;24.13;44.95;100823.87;4427630;32;19956;-69
2022/08/17 12:19:53;;;;;;;;;;;;;;;24.12;45.04;100823.09;4425900;32;20343;-69
2022/08/17 12:25:03;;;;;;;;;;;;;;;24.16;44.63;100822.81;3952429;32;15738505;-68
2022/08/17 12:27:32;;;;;;;;;;;;;;;24.37;44.47;100821.13;4429606;32;20048;-68
2022/08/17 12:29:58;;;;;;;;;;;;;;;24.29;44.42;100818.03;4428915;32;20012;-68
2022/08/17 12:32:26;;;;;;;;;;;;;;;24.56;43.71;100822.03;4429881;32;20262;-68
2022/08/17 12:34:52;;;;;;;;;;;;;;;24.62;43.42;100820.69;4433498;32;19987;-68
2022/08/17 12:37:20;;;;;;;;;;;;;;;24.29;43.85;100826.66;4426640;32;19953;-68
2022/08/17 12:39:51;;;;;;;;;;;;;;;24.18;44.58;100818.09;4430449;32;19977;-68
2022/08/17 12:42:23;;;;;;;;;;;;;;;24.28;44.27;100818.56;4428807;32;19961;-68
2022/08/17 12:44:49;;;;;;;;;;;;;;;24.39;43.91;100819.25;4429383;32;20034;-68
2022/08/17 12:47:17;;;;;;;;;;;;;;;24.42;43.91;100826.06;4431526;32;20375;-68
2022/08/17 12:49:44;;;;;;;;;;;;;;;23.99;44.39;100811.38;4427055;32;19950;-68
2022/08/17 12:54:48;;;;;;;;;;;;;;;25.68;41.83;100821.28;3951479;32;15723654;-67
2022/08/17 12:57:19;;;;;;;;;;;;;;;25.68;41.83;100821.28;4431680;32;19975;-69
2022/08/17 12:59:49;;;;;;;;;;;;;;;25.36;41.66;100817.47;4433536;32;19971;-69
2022/08/17 13:02:18;;;;;;;;;;;;;;;25.45;41.56;100822.88;4433068;32;20224;-69
2022/08/17 13:04:44;;;;;;;;;;;;;;;25.45;41.57;100817.09;4429936;32;19972;-69
2022/08/17 13:07:11;;;;;;;;;;;;;;;25.73;40.88;100813.88;4430843;32;19956;-69
2022/08/17 13:09:36;;;;;;;;;;;;;;;26.00;40.75;100809.91;4432363;32;19949;-69
2022/08/17 13:12:02;;;;;;;;;;;;;;;26.49;39.70;100817.09;4435419;32;20288;-70
2022/08/17 13:14:31;;;;;;;;;;;;;;;26.64;38.83;100823.19;4431023;32;20401;-68
2022/08/17 13:16:58;;;;;;;;;;;;;;;26.68;38.32;100817.88;4434759;32;19988;-67
2022/08/17 13:19:25;;;;;;;;;;;;;;;26.91;38.00;100811.19;4427776;32;19994;-68
2022/08/17 13:21:52;;;;;;;;;;;;;;;26.89;38.07;100813.06;4431785;32;19953;-68
2022/08/17 13:24:23;;;;;;;;;;;;;;;27.09;37.89;100809.56;4434210;32;20334;-67
2022/08/17 13:27:02;;;;;;;;;;;;;;;27.39;37.19;100818.00;4431148;32;20008;-67
2022/08/17 13:32:21;;;;;;;;;;;;;;;27.76;36.31;100809.87;3953799;32;15721959;-69
2022/08/17 13:42:45;;;;;;;;;;;;;;;29.08;34.65;100808.22;3953164;32;15727965;-69
2022/08/17 13:45:30;;;;;;;;;;;;;;;29.08;34.65;100808.22;4436512;32;19945;-69
2022/08/17 13:48:16;;;;;;;;;;;;;;;29.37;33.25;100798.97;4437789;32;20015;-69
2022/08/17 13:55:56;;;;;;;;;;;;;;;29.24;33.49;100796.19;3952867;32;15722469;-69
2022/08/17 13:58:25;;;;;;;;;;;;;;;29.30;33.08;100796.81;4431892;32;19957;-69
2022/08/17 14:00:50;;;;;;;;;;;;;;;29.75;32.96;100797.13;4428912;32;19993;-69
2022/08/17 14:03:16;;;;;;;;;;;;;;;29.74;32.42;100791.91;4432884;32;20061;-68
2022/08/17 14:05:44;;;;;;;;;;;;;;;29.60;32.92;100805.69;4434202;32;19986;-69
2022/08/17 14:08:11;;;;;;;;;;;;;;;29.40;33.41;100794.16;4431295;32;20315;-69
2022/08/17 14:10:37;;;;;;;;;;;;;;;29.19;33.65;100796.31;4435201;32;19976;-69
2022/08/17 14:13:03;;;;;;;;;;;;;;;28.99;34.13;100801.53;4434297;32;19953;-69
2022/08/17 14:15:29;;;;;;;;;;;;;;;28.62;34.69;100790.34;4433510;32;19980;-69
2022/08/17 14:17:55;;;;;;;;;;;;;;;28.46;35.06;100797.34;4429242;32;20456;-68
2022/08/17 14:20:24;;;;;;;;;;;;;;;28.37;35.09;100796.97;4434455;32;20271;-69
2022/08/17 14:22:52;;;;;;;;;;;;;;;28.27;35.16;100787.22;4431465;32;20012;-69
2022/08/17 14:25:20;;;;;;;;;;;;;;;28.19;35.28;100795.81;4432427;32;20044;-69
2022/08/17 14:27:46;;;;;;;;;;;;;;;28.07;35.26;100790.84;4430717;32;20379;-69
2022/08/17 14:30:12;;;;;;;;;;;;;;;27.91;35.63;100789.06;4426623;32;19965;-68
2022/08/17 14:32:40;;;;;;;;;;;;;;;27.68;36.15;100788.75;4427188;32;19978;-69
2022/08/17 14:35:07;;;;;;;;;;;;;;;27.42;36.50;100788.75;4432141;32;19969;-68
2022/08/17 14:37:33;;;;;;;;;;;;;;;27.57;36.40;100791.06;4432289;32;20480;-69
2022/08/17 14:40:01;;;;;;;;;;;;;;;27.48;36.71;100779.97;4430483;32;19975;-68
2022/08/17 14:42:32;;;;;;;;;;;;;;;27.44;36.87;100791.06;4435119;32;19953;-69
2022/08/17 14:44:58;;;;;;;;;;;;;;;27.49;36.63;100793.88;4429254;32;19957;-68
2022/08/17 14:47:25;;;;;;;;;;;;;;;27.80;36.34;100795.88;4429653;32;19997;-69
2022/08/17 14:49:51;;;;;;;;;;;;;;;28.03;36.09;100799.06;4429258;32;19949;-69
2022/08/17 14:52:20;;;;;;;;;;;;;;;28.01;35.86;100790.94;4428981;32;20615;-69
2022/08/17 14:54:47;;;;;;;;;;;;;;;27.99;35.78;100795.75;4437697;32;19949;-69
2022/08/17 14:57:13;;;;;;;;;;;;;;;27.65;36.16;100795.66;4431684;32;20346;-69
2022/08/17 14:59:39;;;;;;;;;;;;;;;27.68;36.17;100793.75;4432610;32;19966;-69
2022/08/17 15:02:05;;;;;;;;;;;;;;;27.70;36.16;100794.75;4430300;32;19972;-69
2022/08/17 15:04:30;;;;;;;;;;;;;;;27.40;36.53;100784.84;4434758;32;19969;-69
2022/08/17 15:06:56;;;;;;;;;;;;;;;27.62;36.38;100788.09;4419166;32;20033;-69
2022/08/17 15:09:22;;;;;;;;;;;;;;;27.55;36.36;100791.62;4421373;32;19990;-69
2022/08/17 15:11:48;;;;;;;;;;;;;;;27.75;36.27;100790.97;4418581;32;19958;-69
2022/08/17 15:14:13;;;;;;;;;;;;;;;27.75;36.30;100793.88;4419305;32;19968;-68
2022/08/17 15:16:40;;;;;;;;;;;;;;;27.53;36.47;100788.53;4426392;32;19949;-69
2022/08/17 15:19:06;;;;;;;;;;;;;;;27.44;36.54;100791.88;4423258;32;20014;-69
2022/08/17 15:21:32;;;;;;;;;;;;;;;27.45;36.33;100793.41;4422629;32;20005;-68
2022/08/17 15:23:58;;;;;;;;;;;;;;;27.01;37.07;100792.13;4422145;32;19957;-68